createdAt,value
2023-04-25T00:02:01.833Z,26.39
2023-04-25T00:04:31.898Z,26.42
2023-04-25T00:07:03.449Z,26.44
2023-04-25T00:09:32.387Z,26.48
2023-04-25T00:12:00.864Z,26.50
2023-04-25T00:14:29.862Z,26.56
2023-04-25T00:16:58.370Z,26.59
2023-04-25T00:19:26.775Z,26.64
2023-04-25T00:21:55.393Z,26.70
2023-04-25T00:24:23.937Z,26.72
2023-04-25T00:26:52.352Z,26.76
2023-04-25T00:29:20.792Z,26.79
2023-04-25T00:31:49.238Z,26.84
2023-04-25T00:34:17.629Z,26.91
2023-04-25T00:36:46.028Z,27.01
2023-04-25T00:39:15.662Z,27.15
2023-04-25T00:41:44.375Z,27.23
2023-04-25T00:44:15.386Z,27.28
2023-04-25T00:46:44.507Z,27.31
2023-04-25T00:49:17.468Z,27.33
2023-04-25T00:51:46.784Z,27.39
2023-04-25T00:54:17.397Z,27.47
2023-04-25T00:56:47.527Z,27.52
2023-04-25T00:59:18.179Z,27.56
2023-04-25T01:01:47.611Z,27.61
2023-04-25T01:04:16.604Z,27.66
2023-04-25T01:06:45.468Z,27.69
2023-04-25T01:09:14.800Z,27.74
2023-04-25T01:11:43.224Z,27.78
2023-04-25T01:14:11.791Z,27.84
2023-04-25T01:16:40.492Z,27.88
2023-04-25T01:19:14.198Z,27.95
2023-04-25T01:21:42.734Z,28.00
2023-04-25T01:24:11.324Z,28.06
2023-04-25T01:26:40.418Z,28.11
2023-04-25T01:29:09.841Z,28.18
2023-04-25T01:31:39.161Z,28.24
2023-04-25T01:34:07.776Z,28.29
2023-04-25T01:36:37.046Z,28.35
2023-04-25T01:39:05.977Z,28.42
2023-04-25T01:41:34.656Z,28.49
2023-04-25T01:44:04.474Z,28.56
2023-04-25T01:46:33.516Z,28.62
2023-04-25T01:49:02.092Z,28.68
2023-04-25T01:51:30.913Z,28.75
2023-04-25T01:54:01.158Z,28.80
2023-04-25T01:56:38.899Z,28.86
2023-04-25T01:59:08.644Z,28.94
2023-04-25T02:01:37.146Z,28.99
2023-04-25T02:04:05.715Z,29.06
2023-04-25T02:06:34.374Z,29.11
2023-04-25T02:09:02.970Z,29.15
2023-04-25T02:11:31.434Z,29.21
2023-04-25T02:13:59.856Z,29.27
2023-04-25T02:16:28.394Z,29.35
2023-04-25T02:18:56.852Z,29.41
2023-04-25T02:21:25.279Z,29.47
2023-04-25T02:23:54.020Z,29.53
2023-04-25T02:26:23.043Z,29.60
2023-04-25T02:28:51.994Z,29.66
2023-04-25T02:31:20.405Z,29.72
2023-04-25T02:33:49.888Z,29.82
2023-04-25T02:36:18.414Z,29.89
2023-04-25T02:38:46.925Z,29.96
2023-04-25T02:41:15.369Z,30.00
2023-04-25T02:43:43.779Z,30.05
2023-04-25T02:46:12.231Z,30.14
2023-04-25T02:48:40.667Z,30.19
2023-04-25T02:51:09.060Z,30.24
2023-04-25T02:53:37.765Z,30.31
2023-04-25T02:56:06.476Z,30.37
2023-04-25T02:58:34.867Z,30.41
2023-04-25T03:01:03.278Z,30.48
2023-04-25T03:03:32.194Z,30.54
2023-04-25T03:06:00.678Z,30.62
2023-04-25T03:08:34.361Z,30.66
2023-04-25T03:11:02.935Z,30.73
2023-04-25T03:13:31.948Z,30.79
2023-04-25T03:16:00.767Z,30.87
2023-04-25T03:18:29.181Z,30.91
2023-04-25T03:20:57.625Z,30.96
2023-04-25T03:23:25.999Z,31.03
2023-04-25T03:25:54.471Z,31.10
2023-04-25T03:28:22.932Z,31.16
2023-04-25T03:30:51.347Z,31.24
2023-04-25T03:33:19.993Z,31.31
2023-04-25T03:35:48.524Z,31.36
2023-04-25T03:38:16.998Z,31.43
2023-04-25T03:40:45.448Z,31.50
2023-04-25T03:43:13.880Z,31.56
2023-04-25T03:45:42.503Z,31.63
2023-04-25T03:48:11.210Z,31.71
2023-04-25T03:50:39.677Z,31.79
2023-04-25T03:53:08.595Z,31.86
2023-04-25T03:55:37.013Z,31.92
2023-04-25T03:58:05.466Z,32.01
2023-04-25T04:00:33.861Z,32.08
2023-04-25T04:03:02.630Z,32.15
2023-04-25T04:05:31.636Z,32.22
2023-04-25T04:08:00.048Z,32.27
2023-04-25T04:10:28.543Z,32.33
2023-04-25T04:12:57.114Z,32.42
2023-04-25T04:15:25.663Z,32.50
2023-04-25T04:17:54.165Z,32.59
2023-04-25T04:20:22.720Z,32.66
2023-04-25T04:22:51.103Z,32.75
2023-04-25T04:25:20.079Z,32.82
2023-04-25T04:27:49.218Z,32.88
2023-04-25T04:30:17.798Z,32.94
2023-04-25T04:32:47.370Z,33.02
2023-04-25T04:35:16.850Z,33.10
2023-04-25T04:37:47.610Z,33.20
2023-04-25T04:40:19.785Z,33.28
2023-04-25T04:42:48.361Z,33.35
2023-04-25T04:45:18.187Z,33.39
2023-04-25T04:47:47.739Z,33.50
2023-04-25T04:50:16.986Z,33.56
2023-04-25T04:52:45.497Z,33.61
2023-04-25T04:55:13.939Z,33.67
2023-04-25T04:57:42.381Z,33.73
2023-04-25T05:00:12.902Z,33.77
2023-04-25T05:02:41.646Z,33.84
2023-04-25T05:05:11.221Z,33.90
2023-04-25T05:07:39.636Z,33.98
2023-04-25T05:10:08.736Z,34.01
2023-04-25T05:12:37.399Z,34.10
2023-04-25T05:15:06.139Z,34.16
2023-04-25T05:17:34.842Z,34.20
2023-04-25T05:20:04.699Z,34.24
2023-04-25T05:22:33.110Z,34.27
2023-04-25T05:25:01.528Z,34.32
2023-04-25T05:27:29.963Z,34.36
2023-04-25T05:29:58.348Z,34.39
2023-04-25T05:32:27.210Z,34.45
2023-04-25T05:34:55.989Z,34.50
2023-04-25T05:37:24.394Z,34.56
2023-04-25T05:39:55.465Z,34.59
2023-04-25T05:42:23.939Z,34.64
2023-04-25T05:44:52.374Z,34.68
2023-04-25T05:47:20.788Z,34.70
2023-04-25T05:49:49.213Z,34.71
2023-04-25T05:52:17.665Z,34.77
2023-04-25T05:54:46.080Z,34.79
2023-04-25T05:57:29.316Z,34.84
2023-04-25T05:59:57.788Z,34.93
2023-04-25T06:02:26.279Z,34.96
2023-04-25T06:04:55.131Z,35.00
2023-04-25T06:07:23.896Z,35.04
2023-04-25T06:09:53.019Z,35.07
2023-04-25T06:12:21.695Z,35.11
2023-04-25T06:14:50.209Z,35.11
2023-04-25T06:17:18.642Z,35.13
2023-04-25T06:19:47.052Z,35.13
2023-04-25T06:22:15.573Z,35.19
2023-04-25T06:24:43.978Z,35.20
2023-04-25T06:27:12.351Z,35.23
2023-04-25T06:29:40.746Z,35.26
2023-04-25T06:32:09.220Z,35.26
2023-04-25T06:34:37.869Z,35.30
2023-04-25T06:37:06.420Z,35.31
2023-04-25T06:39:34.805Z,35.35
2023-04-25T06:42:03.244Z,35.39
2023-04-25T06:44:32.424Z,35.44
2023-04-25T06:47:00.922Z,35.45
2023-04-25T06:49:29.362Z,35.49
2023-04-25T06:51:57.841Z,35.55
2023-04-25T06:54:27.032Z,35.53
2023-04-25T06:56:55.957Z,35.54
2023-04-25T06:59:25.249Z,35.54
2023-04-25T07:01:53.642Z,35.52
2023-04-25T07:04:22.647Z,35.54
2023-04-25T07:06:51.668Z,35.55
2023-04-25T07:09:20.102Z,35.58
2023-04-25T07:11:48.745Z,35.60
2023-04-25T07:14:17.398Z,35.62
2023-04-25T07:16:45.884Z,35.63
2023-04-25T07:19:14.465Z,35.64
2023-04-25T07:21:42.854Z,35.67
2023-04-25T07:24:11.241Z,35.69
2023-04-25T07:26:39.645Z,35.67
2023-04-25T07:29:08.072Z,35.65
2023-04-25T07:31:36.614Z,35.63
2023-04-25T07:34:05.176Z,35.60
2023-04-25T07:36:34.010Z,35.58
2023-04-25T07:39:02.389Z,35.55
2023-04-25T07:41:30.928Z,35.52
2023-04-25T07:43:59.337Z,35.49
2023-04-25T07:46:27.892Z,35.50
2023-04-25T07:48:56.467Z,35.48
2023-04-25T07:51:24.874Z,35.48
2023-04-25T07:53:53.361Z,35.48
2023-04-25T07:56:21.866Z,35.45
2023-04-25T07:58:50.408Z,35.43
2023-04-25T08:01:19.004Z,35.40
2023-04-25T08:03:47.661Z,35.36
2023-04-25T08:06:16.614Z,35.33
2023-04-25T08:08:45.226Z,35.34
2023-04-25T08:11:13.744Z,35.30
2023-04-25T08:13:42.173Z,35.25
2023-04-25T08:16:10.911Z,35.23
2023-04-25T08:18:39.344Z,35.18
2023-04-25T08:21:08.794Z,35.15
2023-04-25T08:23:37.288Z,35.10
2023-04-25T08:26:06.865Z,35.04
2023-04-25T08:28:35.397Z,35.00
2023-04-25T08:31:03.945Z,34.96
2023-04-25T08:33:33.192Z,34.94
2023-04-25T08:36:01.822Z,34.88
2023-04-25T08:38:30.217Z,34.86
2023-04-25T08:41:01.890Z,34.82
2023-04-25T08:43:32.769Z,34.76
2023-04-25T08:46:05.509Z,34.72
2023-04-25T08:48:36.980Z,34.68
2023-04-25T08:53:46.185Z,34.55
2023-04-25T08:56:19.503Z,34.46
2023-04-25T08:58:49.994Z,34.36
2023-04-25T09:01:19.396Z,34.27
2023-04-25T09:03:49.450Z,34.21
2023-04-25T09:06:20.264Z,34.16
2023-04-25T09:08:48.717Z,34.09
2023-04-25T09:11:17.815Z,34.02
2023-04-25T09:13:48.165Z,33.96
2023-04-25T09:16:19.367Z,33.93
2023-04-25T09:18:49.935Z,33.92
2023-04-25T09:21:18.318Z,33.92
2023-04-25T09:23:51.721Z,33.90
2023-04-25T09:26:21.994Z,33.89
2023-04-25T09:28:50.467Z,33.90
2023-04-25T09:31:26.508Z,33.90
2023-04-25T09:34:03.051Z,33.90
2023-04-25T09:36:32.990Z,33.91
2023-04-25T09:39:03.062Z,33.94
2023-04-25T09:41:31.746Z,33.95
2023-04-25T09:44:01.527Z,33.97
2023-04-25T09:46:41.819Z,33.97
2023-04-25T09:49:10.599Z,33.97
2023-04-25T09:51:38.988Z,33.95
2023-04-25T09:54:07.520Z,33.92
2023-04-25T09:56:39.641Z,33.89
2023-04-25T09:59:09.346Z,33.85
2023-04-25T10:01:41.970Z,33.84
2023-04-25T10:04:14.241Z,33.78
2023-04-25T10:06:45.200Z,33.75
2023-04-25T10:09:14.973Z,33.70
2023-04-25T10:11:43.704Z,33.67
2023-04-25T10:14:12.481Z,33.62
2023-04-25T10:16:42.389Z,33.58
2023-04-25T10:19:12.092Z,33.55
2023-04-25T10:22:07.479Z,33.52
2023-04-25T10:24:39.166Z,33.47
2023-04-25T10:27:09.230Z,33.43
2023-04-25T10:29:37.876Z,33.39
2023-04-25T10:32:06.721Z,33.35
2023-04-25T10:34:43.947Z,33.33
2023-04-25T10:37:13.272Z,33.27
2023-04-25T10:39:45.896Z,33.22
2023-04-25T10:42:14.758Z,33.17
2023-04-25T10:44:43.168Z,33.10
2023-04-25T10:47:11.890Z,33.03
2023-04-25T10:49:44.581Z,32.95
2023-04-25T10:52:18.902Z,32.88
2023-04-25T10:54:55.658Z,32.80
2023-04-25T10:57:38.431Z,32.71
2023-04-25T11:00:13.647Z,32.61
2023-04-25T11:02:55.228Z,32.52
2023-04-25T11:05:51.039Z,32.44
2023-04-25T11:08:39.543Z,32.36
2023-04-25T11:11:08.159Z,32.30
2023-04-25T11:13:37.259Z,32.22
2023-04-25T11:16:12.539Z,32.15
2023-04-25T11:18:46.951Z,32.08
2023-04-25T11:21:16.070Z,32.02
2023-04-25T11:23:48.601Z,31.94
2023-04-25T11:26:17.374Z,31.88
2023-04-25T11:28:48.928Z,31.81
2023-04-25T11:31:17.514Z,31.76
2023-04-25T11:33:47.511Z,31.72
2023-04-25T11:36:15.954Z,31.65
2023-04-25T11:38:44.412Z,31.59
2023-04-25T11:41:13.673Z,31.54
2023-04-25T11:43:43.479Z,31.49
2023-04-25T11:46:12.322Z,31.43
2023-04-25T11:48:41.895Z,31.38
2023-04-25T11:51:10.626Z,31.33
2023-04-25T11:53:43.111Z,31.28
2023-04-25T11:56:15.307Z,31.23
2023-04-25T11:59:04.610Z,31.17
2023-04-25T12:01:38.842Z,31.13
2023-04-25T12:04:17.794Z,31.08
2023-04-25T12:06:51.089Z,31.05
2023-04-25T12:09:23.401Z,31.02
2023-04-25T12:11:56.449Z,30.97
2023-04-25T12:14:30.165Z,30.93
2023-04-25T12:17:00.739Z,30.89
2023-04-25T12:19:38.647Z,30.85
2023-04-25T12:22:24.731Z,30.81
2023-04-25T12:24:55.431Z,30.77
2023-04-25T12:27:23.922Z,30.73
2023-04-25T12:29:57.757Z,30.70
2023-04-25T12:32:27.085Z,30.67
2023-04-25T12:34:55.494Z,30.63
2023-04-25T12:37:24.706Z,30.61
2023-04-25T12:39:53.294Z,30.59
2023-04-25T12:42:21.867Z,30.57
2023-04-25T12:44:50.416Z,30.54
2023-04-25T12:47:18.835Z,30.53
2023-04-25T12:49:47.306Z,30.50
2023-04-25T12:52:15.691Z,30.48
2023-04-25T12:54:44.172Z,30.45
2023-04-25T12:57:13.365Z,30.40
2023-04-25T12:59:41.801Z,30.38
2023-04-25T13:02:10.323Z,30.35
2023-04-25T13:04:38.839Z,30.33
2023-04-25T13:07:07.399Z,30.31
2023-04-25T13:09:35.815Z,30.29
2023-04-25T13:12:04.310Z,30.28
2023-04-25T13:14:32.853Z,30.25
2023-04-25T13:17:01.300Z,30.23
2023-04-25T13:19:29.753Z,30.17
2023-04-25T13:21:58.383Z,30.13
2023-04-25T13:24:26.780Z,30.08
2023-04-25T13:26:55.195Z,30.04
2023-04-25T13:29:23.660Z,30.01
2023-04-25T13:31:52.138Z,29.99
2023-04-25T13:34:20.548Z,29.97
2023-04-25T13:36:48.975Z,29.95
2023-04-25T13:39:17.360Z,29.92
2023-04-25T13:41:45.844Z,29.91
2023-04-25T13:44:14.575Z,29.89
2023-04-25T13:46:47.020Z,29.88
2023-04-25T13:49:16.168Z,29.84
2023-04-25T13:51:44.552Z,29.80
2023-04-25T13:54:13.387Z,29.77
2023-04-25T13:56:44.019Z,29.73
2023-04-25T13:59:13.296Z,29.69
2023-04-25T14:01:42.102Z,29.68
2023-04-25T14:04:10.694Z,29.66
2023-04-25T14:06:39.449Z,29.64
2023-04-25T14:09:09.092Z,29.61
2023-04-25T14:11:37.803Z,29.58
2023-04-25T14:14:06.192Z,29.55
2023-04-25T14:16:34.884Z,29.54
2023-04-25T14:19:03.768Z,29.53
2023-04-25T14:21:34.447Z,29.53
2023-04-25T14:24:02.937Z,29.51
2023-04-25T14:26:32.139Z,29.49
2023-04-25T14:29:00.597Z,29.45
2023-04-25T14:31:29.309Z,29.43
2023-04-25T14:33:59.385Z,29.42
2023-04-25T14:36:30.192Z,29.38
2023-04-25T14:38:58.973Z,29.36
2023-04-25T14:41:28.125Z,29.31
2023-04-25T14:43:57.638Z,29.28
2023-04-25T14:46:26.363Z,29.26
2023-04-25T14:48:55.212Z,29.26
2023-04-25T14:51:23.793Z,29.23
2023-04-25T14:53:52.967Z,29.24
2023-04-25T14:56:21.603Z,29.23
2023-04-25T14:58:50.553Z,29.23
2023-04-25T15:01:19.156Z,29.20
2023-04-25T15:03:48.060Z,29.19
2023-04-25T15:06:16.612Z,29.15
2023-04-25T15:08:44.992Z,29.13
2023-04-25T15:11:13.460Z,29.10
2023-04-25T15:13:42.210Z,29.08
2023-04-25T15:16:10.638Z,29.06
2023-04-25T15:18:39.099Z,29.08
2023-04-25T15:21:07.569Z,29.05
2023-04-25T15:23:36.689Z,29.07
2023-04-25T15:26:05.106Z,29.06
2023-04-25T15:28:35.659Z,29.05
2023-04-25T15:31:04.076Z,29.06
2023-04-25T15:33:32.989Z,29.05
2023-04-25T15:36:01.634Z,29.04
2023-04-25T15:38:30.048Z,29.02
2023-04-25T15:40:58.450Z,29.03
2023-04-25T15:43:27.430Z,29.03
2023-04-25T15:45:55.878Z,29.05
2023-04-25T15:48:24.304Z,29.06
2023-04-25T15:50:52.718Z,29.06
2023-04-25T15:53:21.103Z,29.09
2023-04-25T15:55:49.542Z,29.09
2023-04-25T15:58:17.956Z,29.10
2023-04-25T16:00:49.894Z,29.12
2023-04-25T16:03:18.788Z,29.15
2023-04-25T16:05:47.411Z,29.17
2023-04-25T16:08:15.817Z,29.19
2023-04-25T16:10:44.298Z,29.19
2023-04-25T16:13:13.022Z,29.20
2023-04-25T16:15:41.841Z,29.20
2023-04-25T16:18:10.303Z,29.21
2023-04-25T16:20:38.782Z,29.21
2023-04-25T16:23:07.385Z,29.21
2023-04-25T16:25:35.885Z,29.21
2023-04-25T16:28:04.272Z,29.21
2023-04-25T16:30:32.805Z,29.18
2023-04-25T16:33:02.165Z,29.17
2023-04-25T16:35:33.404Z,29.15
2023-04-25T16:38:02.316Z,29.12
2023-04-25T16:40:30.850Z,29.10
2023-04-25T16:42:59.284Z,29.08
2023-04-25T16:45:28.438Z,29.04
2023-04-25T16:47:56.881Z,29.02
2023-04-25T16:50:25.331Z,28.99
2023-04-25T16:52:53.854Z,28.98
2023-04-25T16:55:22.334Z,28.97
2023-04-25T16:57:50.715Z,28.95
2023-04-25T17:00:19.581Z,28.94
2023-04-25T17:02:48.375Z,28.91
2023-04-25T17:05:16.829Z,28.88
2023-04-25T17:07:45.208Z,28.86
2023-04-25T17:10:13.607Z,28.86
2023-04-25T17:12:42.102Z,28.86
2023-04-25T17:15:11.108Z,28.84
2023-04-25T17:17:39.535Z,28.81
2023-04-25T17:20:08.755Z,28.78
2023-04-25T17:22:41.180Z,28.76
2023-04-25T17:25:10.706Z,28.75
2023-04-25T17:27:39.210Z,28.72
2023-04-25T17:30:08.216Z,28.70
2023-04-25T17:32:36.733Z,28.68
2023-04-25T17:35:06.338Z,28.67
2023-04-25T17:37:34.915Z,28.66
2023-04-25T17:40:05.707Z,28.63
2023-04-25T17:42:34.226Z,28.59
2023-04-25T17:45:02.606Z,28.57
2023-04-25T17:47:31.045Z,28.54
2023-04-25T17:49:59.912Z,28.53
2023-04-25T17:52:28.412Z,28.51
2023-04-25T17:54:56.973Z,28.49
2023-04-25T17:57:26.287Z,28.48
2023-04-25T17:59:57.165Z,28.45
2023-04-25T18:02:25.763Z,28.45
2023-04-25T18:04:54.591Z,28.43
2023-04-25T18:07:23.114Z,28.41
2023-04-25T18:09:51.514Z,28.39
2023-04-25T18:12:20.279Z,28.37
2023-04-25T18:14:48.663Z,28.34
2023-04-25T18:17:18.167Z,28.32
2023-04-25T18:19:47.423Z,28.29
2023-04-25T18:22:16.132Z,28.27
2023-04-25T18:24:47.681Z,28.25
2023-04-25T18:27:16.126Z,28.23
2023-04-25T18:29:46.268Z,28.23
2023-04-25T18:32:14.792Z,28.23
2023-04-25T18:34:44.726Z,28.23
2023-04-25T18:37:15.223Z,28.22
2023-04-25T18:39:43.831Z,28.22
2023-04-25T18:42:12.594Z,28.21
2023-04-25T18:44:41.514Z,28.21
2023-04-25T18:47:19.967Z,28.20
2023-04-25T18:49:49.121Z,28.17
2023-04-25T18:52:18.103Z,28.16
2023-04-25T18:54:47.058Z,28.16
2023-04-25T18:57:17.088Z,28.14
2023-04-25T18:59:47.209Z,28.14
2023-04-25T19:02:17.532Z,28.12
2023-04-25T19:04:46.049Z,28.09
2023-04-25T19:07:15.861Z,28.07
2023-04-25T19:09:44.345Z,28.04
2023-04-25T19:12:12.840Z,28.00
2023-04-25T19:14:41.603Z,27.95
2023-04-25T19:17:10.094Z,27.90
2023-04-25T19:19:39.327Z,27.86
2023-04-25T19:22:08.481Z,27.83
2023-04-25T19:24:36.881Z,27.79
2023-04-25T19:27:05.643Z,27.75
2023-04-25T19:29:35.065Z,27.72
2023-04-25T19:32:04.420Z,27.68
2023-04-25T19:34:32.865Z,27.66
2023-04-25T19:37:01.715Z,27.65
2023-04-25T19:39:30.240Z,27.62
2023-04-25T19:41:58.708Z,27.60
2023-04-25T19:44:27.432Z,27.59
2023-04-25T19:46:55.804Z,27.58
2023-04-25T19:49:24.217Z,27.57
2023-04-25T19:51:52.939Z,27.56
2023-04-25T19:54:23.275Z,27.55
2023-04-25T19:56:51.772Z,27.53
2023-04-25T19:59:20.251Z,27.51
2023-04-25T20:01:48.789Z,27.51
2023-04-25T20:04:19.284Z,27.48
2023-04-25T20:06:47.684Z,27.46
2023-04-25T20:09:17.361Z,27.45
2023-04-25T20:11:45.853Z,27.45
2023-04-25T20:14:14.674Z,27.44
2023-04-25T20:16:43.321Z,27.42
2023-04-25T20:19:11.802Z,27.39
2023-04-25T20:21:40.655Z,27.38
2023-04-25T20:24:09.577Z,27.36
2023-04-25T20:26:38.607Z,27.33
2023-04-25T20:29:07.455Z,27.32
2023-04-25T20:31:37.878Z,27.31
2023-04-25T20:34:06.423Z,27.28
2023-04-25T20:36:34.844Z,27.27
2023-04-25T20:39:03.424Z,27.26
2023-04-25T20:41:32.662Z,27.25
2023-04-25T20:44:02.062Z,27.24
2023-04-25T20:46:31.214Z,27.22
2023-04-25T20:49:00.089Z,27.20
2023-04-25T20:51:28.607Z,27.20
2023-04-25T20:53:57.814Z,27.18
2023-04-25T20:56:27.450Z,27.17
2023-04-25T20:58:56.698Z,27.16
2023-04-25T21:01:26.399Z,27.15
2023-04-25T21:03:55.243Z,27.12
2023-04-25T21:06:23.842Z,27.08
2023-04-25T21:08:52.669Z,27.06
2023-04-25T21:11:21.390Z,27.05
2023-04-25T21:13:49.850Z,27.04
2023-04-25T21:16:18.281Z,27.01
2023-04-25T21:18:46.826Z,27.00
2023-04-25T21:21:15.288Z,26.99
2023-04-25T21:23:43.920Z,26.99
2023-04-25T21:26:12.400Z,26.96
2023-04-25T21:28:40.820Z,26.92
2023-04-25T21:31:09.248Z,26.92
2023-04-25T21:33:37.802Z,26.88
2023-04-25T21:36:07.135Z,26.87
2023-04-25T21:38:36.336Z,26.85
2023-04-25T21:41:04.964Z,26.85
2023-04-25T21:43:33.525Z,26.83
2023-04-25T21:48:33.024Z,26.80
2023-04-25T21:51:01.614Z,26.79
2023-04-25T21:53:30.009Z,26.76
2023-04-25T21:55:58.418Z,26.74
2023-04-25T21:58:27.494Z,26.73
2023-04-25T22:00:56.568Z,26.72
2023-04-25T22:03:25.058Z,26.71
2023-04-25T22:05:53.545Z,26.69
2023-04-25T22:08:21.966Z,26.69
2023-04-25T22:10:50.349Z,26.68
2023-04-25T22:13:18.740Z,26.67
2023-04-25T22:15:47.175Z,26.66
2023-04-25T22:18:17.118Z,26.65
2023-04-25T22:20:45.871Z,26.63
2023-04-25T22:23:14.741Z,26.61
2023-04-25T22:25:43.394Z,26.60
2023-04-25T22:28:13.570Z,26.59
2023-04-25T22:30:41.965Z,26.59
2023-04-25T22:33:10.405Z,26.58
2023-04-25T22:35:38.876Z,26.57
2023-04-25T22:38:07.441Z,26.57
2023-04-25T22:40:36.335Z,26.55
2023-04-25T22:43:04.850Z,26.53
2023-04-25T22:45:33.584Z,26.53
2023-04-25T22:48:02.042Z,26.53
2023-04-25T22:50:31.026Z,26.52
2023-04-25T22:52:59.462Z,26.50
2023-04-25T22:55:27.908Z,26.49
2023-04-25T22:57:56.301Z,26.49
2023-04-25T23:00:27.123Z,26.48
2023-04-25T23:02:55.899Z,26.48
2023-04-25T23:05:27.147Z,26.48
2023-04-25T23:07:55.686Z,26.48
2023-04-25T23:10:24.278Z,26.48
2023-04-25T23:12:53.007Z,26.49
2023-04-25T23:15:21.771Z,26.51
2023-04-25T23:17:50.430Z,26.51
2023-04-25T23:20:18.973Z,26.53
2023-04-25T23:22:47.398Z,26.53
2023-04-25T23:25:15.951Z,26.56
2023-04-25T23:27:44.744Z,26.58
2023-04-25T23:30:13.556Z,26.60
2023-04-25T23:32:42.965Z,26.62
2023-04-25T23:35:11.662Z,26.64
2023-04-25T23:37:43.614Z,26.65
2023-04-25T23:40:15.221Z,26.67
2023-04-25T23:42:44.057Z,26.69
2023-04-25T23:45:12.608Z,26.70
2023-04-25T23:47:41.044Z,26.72
2023-04-25T23:50:10.078Z,26.74
2023-04-25T23:52:38.861Z,26.75
2023-04-25T23:55:07.948Z,26.78
2023-04-25T23:57:36.446Z,26.81
